Maple Falls, WA

5:12 PM PST on February 01, 2015 (GMT -0800)
Orcas Island | Change Station
CLOSE
Current Station
Airport
Location: Eastsound,
Elevation: 30 ft
Nearby Weather Stations

Elev 30 ft 48.71 °N, 122.91 °W | Updated 17 minutes ago

Overcast
Overcast
46 °F
Feels Like 41 °F
N
13
Wind Variable Wind from SSW

Today
High -- | Low -- °F
--% Chance of Precip.
Yesterday
High -- | Low -- °F
Precip. -- in
7:39 AM 5:05 PM
Waxing Gibbous, 97% visible
Pressure 30.00 in
Visibility 10.0 miles
Clouds Scattered Clouds 2200 ft
Windchill 41 °F
Dew Point 45 °F
Humidity 93%
Rainfall 0.03 in
Snow Depth Not available.
UV 0 out of 12
Pollen 4.60 out of 12
Air Quality Not available.
Flu Activity Not available.
METAR KORS 020055Z AUTO 20011KT 10SM SCT022 08/07 A3000 RMK AO2

More Conditions Fewer Conditions

Pressure 30.00 in
Visibility 10.0 miles
Clouds Scattered Clouds 2200 ft
Windchill 41 °F
Dew Point 45 °F
Humidity 93%
Rainfall 0.03 in
Snow Depth Not available.
UV 0 out of 12
Pollen 4.60 out of 12
Air Quality Not available.
Flu Activity Not available.
METAR KORS 020055Z AUTO 20011KT 10SM SCT022 08/07 A3000 RMK AO2

More Conditions Fewer Conditions

10-Day Weather Forecast

Almanac

Astronomy

Feb. 01, 2015 Rise Set
Actual Time
Civil Twilight
Nautical Twilight
Astronomical Twilight
Moon
Length of Visible Light
Length of Day
Tomorrow will be .
, % of the Moon is Illuminated

Today's Extremes

State Highs State Lows

Community

WunderPhotos

Upload Photos

1,792,641 photos uploaded!

WunderBlogs® & News

Nearby

Air Quality

  Air Quality AQ Index Pollutant
Not available.

Snow Depth

Station Depth Elevation

Earthquake Activity

City Distance Mag. Time & Date
Minimum magnitude displayed is 2.5.

Coastal Water Temperatures

Place Temperature

Nearby Weather Stations